Terminal Aerodrome Forecast
Issued by NWS

Home | Current Version | Previous Version | Graphics & Text | Print | Product List | Glossary Off
Versions: 1 2 3 4 5 6 7 8 9 10 11 12 13 14 15 16

000
FTUS42 KMHX 242300
TAFPGV
TAF
KPGV 242340Z 2500/2524 18005KT P6SM VCTS SCT025 BKN040CB
      TEMPO 2500/2502 3SM TSRA SCT005 BKN025CB
     FM250500 VRB02KT 3SM BR SCT010 BKN100
     FM251300 06005KT P6SM SCT040 BKN100
      AMD LTD TO CLD VIS AND WIND=

USA.gov is the U.S. government's official web portal to all federal, state and local government web resources and services.